Time;durP1;ratioP1;P1;durP2;ratioP2;P2;SDS_P1;SDS_P2;PMS_P1;PMS_P2;Temp;Humidity;BMP_temperature;BMP_pressure;BME280_temperature;BME280_humidity;BME280_pressure;Samples;Min_cycle;Max_cycle;Signal;HPM_P1;HPM_P2
2022/03/11 00:01:07;;;;;;;22.55;11.82;;;2.90;97.10;;;;;;5041482;28;20045;-59
2022/03/11 00:03:33;;;;;;;21.95;11.20;;;2.90;97.20;;;;;;5041092;28;20045;-57
2022/03/11 00:05:59;;;;;;;20.88;10.48;;;2.90;97.50;;;;;;5044146;28;20038;-59
2022/03/11 00:08:25;;;;;;;20.55;12.25;;;2.90;97.70;;;;;;5040275;28;20037;-61
2022/03/11 00:10:50;;;;;;;29.88;11.93;;;2.90;97.90;;;;;;5041454;28;20179;-61
2022/03/11 00:13:16;;;;;;;27.58;12.52;;;2.80;98.10;;;;;;5044001;28;20123;-60
2022/03/11 00:15:42;;;;;;;21.92;11.60;;;2.70;98.40;;;;;;5047135;28;20037;-62
2022/03/11 00:18:08;;;;;;;21.85;11.15;;;2.70;98.50;;;;;;5039879;28;20076;-60
2022/03/11 00:20:34;;;;;;;22.75;11.23;;;2.80;98.40;;;;;;5034538;28;20473;-60
2022/03/11 00:23:00;;;;;;;35.33;11.90;;;2.70;98.50;;;;;;5034693;28;20033;-62
2022/03/11 00:25:26;;;;;;;20.30;10.90;;;2.70;99.00;;;;;;5033582;28;20731;-62
2022/03/11 00:27:52;;;;;;;26.95;12.20;;;2.70;99.00;;;;;;5035604;28;20402;-60
2022/03/11 00:30:17;;;;;;;23.10;12.18;;;2.60;99.60;;;;;;5034589;28;20044;-60
2022/03/11 00:32:43;;;;;;;21.15;11.80;;;2.70;99.20;;;;;;5026888;28;20073;-62
2022/03/11 00:35:11;;;;;;;24.08;12.50;;;2.70;99.40;;;;;;5024932;28;20030;-60
2022/03/11 00:37:38;;;;;;;33.60;12.48;;;2.70;99.60;;;;;;5027372;28;20049;-62
2022/03/11 00:40:05;;;;;;;25.52;12.20;;;2.60;99.70;;;;;;5025638;28;20037;-60
2022/03/11 00:42:30;;;;;;;25.85;12.10;;;2.60;99.80;;;;;;5024709;28;20080;-56
2022/03/11 00:44:56;;;;;;;24.23;12.45;;;2.70;99.60;;;;;;5025656;28;20072;-60
2022/03/11 00:47:22;;;;;;;25.85;11.63;;;2.70;99.70;;;;;;5026347;28;20756;-59
2022/03/11 00:49:47;;;;;;;26.42;13.23;;;2.60;99.80;;;;;;5025797;28;20052;-57
2022/03/11 00:52:13;;;;;;;26.33;12.75;;;2.50;99.80;;;;;;5025258;28;20044;-56
2022/03/11 00:54:38;;;;;;;31.15;14.68;;;2.40;99.90;;;;;;5031215;28;20128;-62
2022/03/11 00:57:04;;;;;;;28.50;13.30;;;2.40;99.90;;;;;;5025728;28;20050;-60
2022/03/11 00:59:30;;;;;;;27.75;12.32;;;2.30;99.90;;;;;;5026719;28;20056;-59
2022/03/11 01:01:55;;;;;;;30.70;14.65;;;2.30;99.90;;;;;;5024187;28;20117;-62
2022/03/11 01:04:21;;;;;;;25.77;13.82;;;2.30;99.90;;;;;;5025729;28;20030;-59
2022/03/11 01:06:47;;;;;;;31.75;13.95;;;2.30;99.90;;;;;;5026059;28;20046;-60
2022/03/11 01:09:12;;;;;;;36.50;14.27;;;2.30;99.90;;;;;;5025678;28;20033;-61
2022/03/11 01:11:38;;;;;;;25.77;13.90;;;2.20;99.90;;;;;;5024484;28;20066;-61
2022/03/11 01:14:05;;;;;;;27.83;14.48;;;2.10;99.90;;;;;;5025344;28;20128;-62
2022/03/11 01:16:30;;;;;;;27.48;13.77;;;2.20;99.90;;;;;;5025945;28;20049;-61
2022/03/11 01:18:56;;;;;;;29.15;14.15;;;2.10;99.90;;;;;;5026387;28;20048;-60
2022/03/11 01:21:22;;;;;;;27.58;12.68;;;2.10;99.90;;;;;;5018660;28;20559;-60
2022/03/11 01:23:47;;;;;;;26.17;12.93;;;2.00;99.90;;;;;;5026695;28;20164;-60
2022/03/11 01:26:13;;;;;;;26.45;13.00;;;1.90;99.90;;;;;;5032365;28;20037;-58
2022/03/11 01:28:41;;;;;;;24.60;12.82;;;1.90;99.90;;;;;;5025383;28;20037;-60
2022/03/11 01:31:11;;;;;;;27.17;12.85;;;1.90;99.90;;;;;;5025189;28;20795;-62
2022/03/11 01:33:38;;;;;;;27.67;13.27;;;1.90;99.90;;;;;;5024137;28;20049;-61
2022/03/11 01:36:05;;;;;;;25.38;13.35;;;2.00;99.90;;;;;;5025863;28;20363;-60
2022/03/11 01:38:31;;;;;;;26.00;13.13;;;;;;;;;;5029944;28;20045;-58
2022/03/11 01:40:57;;;;;;;29.75;15.32;;;;;;;;;;5028204;28;20034;-61
2022/03/11 01:43:23;;;;;;;28.58;13.40;;;;;;;;;;5025343;28;20413;-59
2022/03/11 01:45:49;;;;;;;27.27;12.52;;;;;;;;;;5024152;28;20041;-58
2022/03/11 01:48:15;;;;;;;28.42;13.32;;;;;;;;;;5025510;28;20578;-60
2022/03/11 01:50:42;;;;;;;28.55;13.50;;;;;;;;;;5025034;28;20108;-62
2022/03/11 01:53:09;;;;;;;29.90;12.68;;;;;;;;;;5025300;28;20033;-58
2022/03/11 01:55:35;;;;;;;29.05;14.02;;;;;;;;;;5030953;28;20544;-60
2022/03/11 01:58:02;;;;;;;28.00;14.05;;;;;;;;;;5025363;28;20041;-60
2022/03/11 02:00:28;;;;;;;25.83;12.82;;;;;;;;;;5024418;28;20452;-60
2022/03/11 02:02:54;;;;;;;29.85;13.45;;;;;;;;;;5023641;28;20033;-61
2022/03/11 02:05:20;;;;;;;27.90;13.77;;;;;;;;;;5023899;28;20087;-62
2022/03/11 02:07:49;;;;;;;28.70;14.30;;;;;;;;;;5024626;28;20071;-60
2022/03/11 02:10:15;;;;;;;27.80;14.30;;;;;;;;;;5040143;28;20051;-61
2022/03/11 02:12:41;;;;;;;30.33;14.20;;;;;;;;;;5025835;28;20055;-60
2022/03/11 02:15:09;;;;;;;32.22;15.30;;;;;;;;;;5023871;28;20108;-61
2022/03/11 02:17:35;;;;;;;30.60;14.93;;;;;;;;;;5025671;28;20099;-61
2022/03/11 02:20:02;;;;;;;32.08;13.70;;;;;;;;;;5024759;28;20434;-58
2022/03/11 02:22:30;;;;;;;27.58;13.82;;;;;;;;;;5024582;28;20066;-60
2022/03/11 02:24:56;;;;;;;27.85;13.88;;;;;;;;;;5030592;28;20044;-60
2022/03/11 02:27:22;;;;;;;28.20;14.13;;;;;;;;;;5025336;28;20037;-61
2022/03/11 02:29:48;;;;;;;24.83;14.35;;;;;;;;;;5023977;28;20037;-60
2022/03/11 02:32:14;;;;;;;24.98;12.82;;;;;;;;;;5023696;28;20041;-58
2022/03/11 02:34:40;;;;;;;35.97;14.63;;;;;;;;;;5024924;28;20633;-58
2022/03/11 02:37:09;;;;;;;30.67;13.80;;;;;;;;;;5023888;28;20120;-59
2022/03/11 02:39:35;;;;;;;27.30;13.32;;;;;;;;;;5029966;28;20049;-60
2022/03/11 02:42:03;;;;;;;30.88;15.10;;;;;;;;;;5025939;28;20060;-59
2022/03/11 02:44:31;;;;;;;33.25;14.60;;;;;;;;;;5024052;28;20041;-60
2022/03/11 02:46:59;;;;;;;28.85;13.55;;;;;;;;;;5024661;28;20080;-61
2022/03/11 02:49:25;;;;;;;35.45;14.23;;;;;;;;;;5016908;28;20113;-60
2022/03/11 02:51:51;;;;;;;33.03;14.65;;;;;;;;;;5023293;28;20037;-58
2022/03/11 02:54:17;;;;;;;32.65;15.18;;;;;;;;;;5025611;28;20543;-58
2022/03/11 02:56:43;;;;;;;25.50;13.45;;;;;;;;;;5028223;28;20048;-60
2022/03/11 02:59:09;;;;;;;29.70;14.10;;;;;;;;;;5024608;28;20044;-59
2022/03/11 03:01:35;;;;;;;34.22;15.57;;;;;;;;;;5022976;28;20049;-58
2022/03/11 03:04:01;;;;;;;31.27;14.77;;;;;;;;;;5023809;28;20034;-60
2022/03/11 03:06:27;;;;;;;28.98;13.57;;;;;;;;;;5023698;28;20050;-61
2022/03/11 03:08:53;;;;;;;30.52;13.75;;;;;;;;;;5024494;28;20037;-61
2022/03/11 03:11:19;;;;;;;29.73;15.07;;;;;;;;;;5031462;28;20064;-59
2022/03/11 03:13:46;;;;;;;31.05;15.07;;;;;;;;;;5023592;28;20709;-59
2022/03/11 03:16:12;;;;;;;31.75;14.00;;;;;;;;;;5023819;28;20558;-60
2022/03/11 03:18:38;;;;;;;33.88;16.35;;;;;;;;;;5025004;28;20045;-61
2022/03/11 03:21:04;;;;;;;32.28;15.50;;;;;;;;;;5022795;28;20034;-60
2022/03/11 03:23:30;;;;;;;31.63;15.25;;;;;;;;;;5024588;28;20045;-58
2022/03/11 03:25:57;;;;;;;34.28;16.10;;;;;;;;;;5029622;28;20076;-60
2022/03/11 03:28:23;;;;;;;30.55;15.38;;;;;;;;;;5020252;28;20042;-56
2022/03/11 03:30:49;;;;;;;34.80;14.55;;;;;;;;;;5022612;28;20034;-60
2022/03/11 03:33:15;;;;;;;32.38;15.90;;;;;;;;;;5024326;28;20041;-61
2022/03/11 03:35:41;;;;;;;36.83;14.88;;;;;;;;;;5022261;28;20037;-59
2022/03/11 03:38:07;;;;;;;33.60;15.90;;;;;;;;;;5023926;28;20088;-56
2022/03/11 03:40:33;;;;;;;31.85;16.35;;;;;;;;;;5022061;28;20581;-60
2022/03/11 03:42:59;;;;;;;33.80;15.57;;;;;;;;;;5024036;28;20037;-56
2022/03/11 03:45:25;;;;;;;31.13;14.68;;;;;;;;;;5022082;28;20040;-57
2022/03/11 03:47:51;;;;;;;31.00;15.15;;;;;;;;;;5021583;28;20096;-60
2022/03/11 03:50:17;;;;;;;32.67;15.80;;;;;;;;;;5022451;28;20049;-60
2022/03/11 03:52:44;;;;;;;28.75;14.68;;;;;;;;;;5025221;28;20052;-61
2022/03/11 03:55:11;;;;;;;26.85;14.18;;;;;;;;;;5028914;28;20472;-60
2022/03/11 03:57:37;;;;;;;36.25;16.52;;;;;;;;;;5027583;28;20084;-60
2022/03/11 04:00:04;;;;;;;30.33;14.65;;;;;;;;;;5027451;28;20107;-58
2022/03/11 04:02:32;;;;;;;31.70;14.35;;;;;;;;;;5026829;28;20045;-60
2022/03/11 04:04:58;;;;;;;33.97;16.17;;;;;;;;;;5027048;28;20116;-58
2022/03/11 04:07:24;;;;;;;33.75;15.45;;;;;;;;;;5024024;28;20049;-59
2022/03/11 04:09:50;;;;;;;32.08;15.88;;;;;;;;;;5026749;28;20128;-58
2022/03/11 04:12:16;;;;;;;38.83;16.73;;;;;;;;;;5027180;28;20110;-60
2022/03/11 04:14:42;;;;;;;32.83;16.70;;;;;;;;;;5026575;28;20041;-58
2022/03/11 04:17:08;;;;;;;33.25;16.70;;;;;;;;;;5026592;28;20065;-60
2022/03/11 04:19:34;;;;;;;39.28;17.35;;;;;;;;;;5026925;28;20042;-62
2022/03/11 04:22:00;;;;;;;34.28;17.55;;;;;;;;;;5026647;28;20033;-58
2022/03/11 04:24:27;;;;;;;36.97;17.15;;;;;;;;;;5029859;28;20041;-59
2022/03/11 04:26:53;;;;;;;37.22;16.42;;;;;;;;;;5027415;28;20042;-56
2022/03/11 04:29:19;;;;;;;38.00;18.17;;;;;;;;;;5026595;28;20163;-60
2022/03/11 04:31:45;;;;;;;39.28;17.75;;;;;;;;;;5025289;28;20042;-60
2022/03/11 04:34:11;;;;;;;31.02;16.60;;;;;;;;;;5025942;28;20704;-58
2022/03/11 04:36:38;;;;;;;41.35;18.13;;;;;;;;;;5025047;28;20123;-60
2022/03/11 04:39:05;;;;;;;36.78;16.83;;;;;;;;;;5024632;28;20079;-60
2022/03/11 04:41:32;;;;;;;39.08;18.95;;;;;;;;;;5027132;28;20042;-56
2022/03/11 04:43:58;;;;;;;36.13;17.75;;;;;;;;;;5025521;28;20033;-60
2022/03/11 04:46:24;;;;;;;33.28;17.23;;;;;;;;;;5025828;28;20402;-58
2022/03/11 04:48:50;;;;;;;38.00;17.35;;;;;;;;;;5027131;28;20037;-60
2022/03/11 04:51:16;;;;;;;39.15;18.42;;;;;;;;;;5026501;28;20045;-61
2022/03/11 04:53:43;;;;;;;37.85;17.75;;;;;;;;;;5026955;28;20037;-60
2022/03/11 04:56:09;;;;;;;39.97;18.88;;;;;;;;;;5032972;28;20592;-61
2022/03/11 04:58:35;;;;;;;34.63;16.80;;;;;;;;;;5027327;28;20389;-59
2022/03/11 05:01:01;;;;;;;38.35;19.20;;;;;;;;;;5024446;28;20049;-61
2022/03/11 05:03:27;;;;;;;40.63;19.02;;;;;;;;;;5027090;28;20969;-62
2022/03/11 05:05:53;;;;;;;42.53;19.73;;;;;;;;;;5025786;28;20124;-61
2022/03/11 05:08:20;;;;;;;40.67;18.00;;;;;;;;;;5030455;28;20167;-62
2022/03/11 05:10:46;;;;;;;41.28;18.98;;;;;;;;;;5031776;28;20120;-64
2022/03/11 05:13:12;;;;;;;37.25;18.90;;;;;;;;;;5026775;28;20781;-62
2022/03/11 05:15:38;;;;;;;44.05;21.13;;;;;;;;;;5025621;28;20114;-62
2022/03/11 05:18:05;;;;;;;43.92;19.98;;;;;;;;;;5015799;28;20128;-62
2022/03/11 05:20:31;;;;;;;42.33;19.80;;;;;;;;;;5026084;28;20135;-62
2022/03/11 05:22:57;;;;;;;41.38;19.25;;;;;;;;;;5026347;28;20038;-61
2022/03/11 05:25:23;;;;;;;46.30;20.58;;;;;;;;;;5031600;28;20179;-61
2022/03/11 05:27:49;;;;;;;42.03;20.02;;;;;;;;;;5026334;28;20046;-62
2022/03/11 05:30:15;;;;;;;44.58;20.17;;;;;;;;;;5021828;28;20124;-62
2022/03/11 05:32:45;;;;;;;45.22;20.80;;;;;;;;;;5019221;28;20569;-61
2022/03/11 05:35:11;;;;;;;46.55;20.88;;;;;;;;;;5019617;28;21028;-62
2022/03/11 05:37:38;;;;;;;43.60;21.48;;;;;;;;;;5006980;28;20509;-63
2022/03/11 05:40:04;;;;;;;51.95;21.48;;;;;;;;;;5018327;28;20037;-60
2022/03/11 05:42:30;;;;;;;48.47;21.10;;;;;;;;;;5022585;28;20037;-62
2022/03/11 05:44:56;;;;;;;38.03;18.80;;;;;;;;;;5018995;28;20060;-62
2022/03/11 05:47:22;;;;;;;45.17;19.48;;;;;;;;;;5023736;28;20402;-61
2022/03/11 05:49:48;;;;;;;48.03;22.58;;;;;;;;;;5022893;28;20029;-65
2022/03/11 05:52:14;;;;;;;45.08;22.02;;;;;;;;;;5023912;28;20578;-61
2022/03/11 05:54:40;;;;;;;46.90;20.27;;;;;;;;;;5028749;28;20049;-58
2022/03/11 05:57:06;;;;;;;40.85;19.00;;;;;;;;;;5026047;28;20064;-61
2022/03/11 05:59:32;;;;;;;44.90;21.75;;;;;;;;;;5023968;28;20040;-60
2022/03/11 06:01:59;;;;;;;43.67;21.83;;;;;;;;;;5024269;28;20042;-62
2022/03/11 06:04:25;;;;;;;43.47;21.20;;;;;;;;;;5016674;28;20120;-60
2022/03/11 06:06:51;;;;;;;39.40;19.58;;;;;;;;;;5024255;28;20505;-57
2022/03/11 06:09:17;;;;;;;41.88;21.05;;;;;;;;;;5025324;28;20037;-61
2022/03/11 06:11:43;;;;;;;48.38;22.02;;;;;;;;;;5023951;28;20042;-62
2022/03/11 06:14:09;;;;;;;41.85;21.40;;;;;;;;;;5023130;28;20067;-63
2022/03/11 06:16:35;;;;;;;42.28;20.88;;;;;;;;;;5024225;28;20409;-62
2022/03/11 06:19:02;;;;;;;42.30;20.25;;;;;;;;;;5025074;28;20045;-59
2022/03/11 06:21:29;;;;;;;38.03;18.38;;;;;;;;;;5024684;28;20042;-60
2022/03/11 06:23:56;;;;;;;49.35;21.33;;;;;;;;;;5024432;28;20033;-60
2022/03/11 06:26:23;;;;;;;43.22;20.08;;;;;;;;;;5031236;28;20523;-59
2022/03/11 06:28:49;;;;;;;40.17;20.95;;;;;;;;;;5022262;28;20064;-61
2022/03/11 06:31:15;;;;;;;45.50;21.88;;;;;;;;;;5022514;28;20037;-62
2022/03/11 06:33:41;;;;;;;38.40;19.98;;;;;;;;;;5023300;28;20029;-64
2022/03/11 06:36:07;;;;;;;41.15;20.48;;;;;;;;;;5024400;28;20049;-63
2022/03/11 06:38:33;;;;;;;41.08;20.60;;;;;;;;;;5037796;28;20044;-63
2022/03/11 06:40:59;;;;;;;39.58;20.42;;;;;;;;;;5035276;28;20088;-63
2022/03/11 06:43:25;;;;;;;42.72;19.17;;;;;;;;;;5022333;28;20045;-62
2022/03/11 06:45:51;;;;;;;37.53;19.77;;;;;;;;;;5023522;28;20033;-62
2022/03/11 06:48:18;;;;;;;40.83;19.98;;;;;;;;;;5025005;28;20044;-61
2022/03/11 06:50:44;;;;;;;37.10;19.75;;;;;;;;;;5023521;28;20048;-63
2022/03/11 06:53:10;;;;;;;39.38;19.27;;;;;;;;;;5023923;28;20025;-61
2022/03/11 06:55:36;;;;;;;40.33;20.58;;;;;;;;;;5030008;28;20042;-61
2022/03/11 06:58:02;;;;;;;37.10;18.35;;;;;;;;;;5023208;28;20056;-64
2022/03/11 07:00:29;;;;;;;36.22;19.17;;;;;;;;;;5023280;28;20436;-59
2022/03/11 07:02:55;;;;;;;43.17;19.77;;;;;;;;;;5024679;28;20103;-62
2022/03/11 07:05:21;;;;;;;30.35;17.35;;;;;;;;;;5023273;28;20665;-62
2022/03/11 07:07:47;;;;;;;32.88;18.30;;;;;;;;;;5024465;28;20052;-62
2022/03/11 07:10:15;;;;;;;;;;;;;;;;;;5039011;28;20072;-62
2022/03/11 07:12:41;;;;;;;33.95;17.55;;;;;;;;;;5023301;28;19928;-62
2022/03/11 07:15:07;;;;;;;;;;;;;;;;;;5024044;28;20037;-62
2022/03/11 07:17:34;;;;;;;33.53;15.70;;;;;;;;;;5024468;28;19972;-61
2022/03/11 07:20:00;;;;;;;30.88;17.58;;;;;;;;;;5023807;28;20041;-61
2022/03/11 07:22:26;;;;;;;37.10;17.33;;;;;;;;;;5022806;28;20041;-60
2022/03/11 07:24:52;;;;;;;33.05;17.17;;;;;;;;;;5025664;28;20427;-60
2022/03/11 07:27:18;;;;;;;29.85;15.75;;;;;;;;;;5023685;28;20049;-59
2022/03/11 07:29:44;;;;;;;;;;;;;;;;;;5027898;28;20528;-62
2022/03/11 07:34:49;;;;;;;26.40;15.55;;;;;;;;;;5678611;23;20045;-70
2022/03/11 07:37:15;;;;;;;40.08;16.25;;;;;;;;;;4999030;28;20739;-69
2022/03/11 07:39:42;;;;;;;29.17;16.30;;;;;;;;;;5005970;28;20053;-70
2022/03/11 07:42:08;;;;;;;27.05;14.35;;;;;;;;;;5005965;28;20038;-72
2022/03/11 07:44:35;;;;;;;34.30;14.63;;;;;;;;;;5006247;28;20108;-70
2022/03/11 07:47:01;;;;;;;26.83;14.23;;;;;;;;;;5006963;28;20099;-68
2022/03/11 07:49:28;;;;;;;27.60;14.90;;;;;;;;;;5008011;28;20076;-69
2022/03/11 07:51:54;;;;;;;30.80;14.77;;;;;;;;;;5007548;28;20412;-72
2022/03/11 07:54:21;;;;;;;28.08;14.70;;;;;;;;;;5007031;28;20048;-73
2022/03/11 07:56:47;;;;;;;27.42;14.82;;;;;;;;;;5007578;28;20038;-68
2022/03/11 07:59:13;;;;;;;28.33;14.25;;;;;;;;;;5006136;28;20033;-69
2022/03/11 08:01:39;;;;;;;29.95;13.02;;;;;;;;;;5018668;28;20512;-69
2022/03/11 08:04:05;;;;;;;;;;;;;;;;;;5032084;28;20041;-72
2022/03/11 08:06:31;;;;;;;25.42;14.57;;;;;;;;;;5045732;28;20333;-72
2022/03/11 08:08:57;;;;;;;26.20;13.65;;;;;;;;;;5047164;28;20742;-70
2022/03/11 08:11:24;;;;;;;28.08;13.55;;;;;;;;;;5047025;28;20087;-68
2022/03/11 08:13:52;;;;;;;24.13;12.90;;;;;;;;;;5043334;28;20477;-69
2022/03/11 08:16:20;;;;;;;25.85;13.02;;;;;;;;;;5045351;28;20041;-68
2022/03/11 08:18:46;;;;;;;25.98;13.80;;;;;;;;;;5043080;28;20895;-69
2022/03/11 08:21:14;;;;;;;27.98;13.60;;;;;;;;;;5044739;28;20033;-68
2022/03/11 08:23:40;;;;;;;26.23;13.13;;;;;;;;;;5045441;28;20390;-68
2022/03/11 08:26:06;;;;;;;26.75;13.65;;;;;;;;;;5044935;28;20120;-68
2022/03/11 08:28:33;;;;;;;28.50;13.98;;;;;;;;;;5043973;28;20049;-68
2022/03/11 08:30:59;;;;;;;22.42;11.93;;;;;;;;;;5043516;28;20570;-69
2022/03/11 08:33:25;;;;;;;;;;;;;;;;;;5044208;28;20688;-69
2022/03/11 08:35:53;;;;;;;16.33;9.15;;;;;;;;;;5054209;28;19970;-70
2022/03/11 08:38:19;;;;;;;26.20;12.77;;;;;;;;;;5040070;28;21056;-69
2022/03/11 08:40:45;;;;;;;23.05;12.02;;;;;;;;;;5043467;28;20599;-69
2022/03/11 08:43:11;;;;;;;24.20;13.27;;;;;;;;;;5041673;28;20120;-70
2022/03/11 08:45:37;;;;;;;28.42;12.75;;;;;;;;;;5044488;28;20124;-69
2022/03/11 08:48:03;;;;;;;25.77;14.05;;;;;;;;;;5044596;28;20051;-69
2022/03/11 08:50:30;;;;;;;26.50;12.90;;;;;;;;;;5046110;28;20066;-69
2022/03/11 08:52:56;;;;;;;26.98;13.25;;;;;;;;;;5044153;28;20033;-68
2022/03/11 08:55:22;;;;;;;26.48;12.50;;;;;;;;;;5044964;28;20109;-68
2022/03/11 08:57:51;;;;;;;26.73;13.73;;;;;;;;;;5045997;28;20040;-69
2022/03/11 09:00:19;;;;;;;24.13;13.07;;;;;;;;;;5044861;28;20036;-69
2022/03/11 09:02:45;;;;;;;26.08;12.73;;;;;;;;;;5046160;28;20098;-69
2022/03/11 09:05:11;;;;;;;24.50;13.43;;;;;;;;;;5044902;28;20033;-69
2022/03/11 09:07:37;;;;;;;25.30;12.73;;;;;;;;;;5043963;28;20067;-70
2022/03/11 09:10:05;;;;;;;25.55;13.05;;;;;;;;;;5044838;28;20045;-68
2022/03/11 09:12:31;;;;;;;23.17;11.95;;;;;;;;;;5046173;28;20045;-69
2022/03/11 09:14:57;;;;;;;23.75;11.90;;;;;;;;;;5045637;28;20052;-69
2022/03/11 09:17:23;;;;;;;21.75;11.98;;;;;;;;;;5045696;28;20045;-70
2022/03/11 09:19:49;;;;;;;27.70;12.35;;;;;;;;;;5046012;28;20048;-68
2022/03/11 09:22:17;;;;;;;22.67;11.85;;;;;;;;;;5045791;28;20710;-69
2022/03/11 09:24:44;;;;;;;25.20;12.52;;;;;;;;;;5044301;28;20544;-69
2022/03/11 09:27:11;;;;;;;28.88;13.32;;;;;;;;;;5044964;28;20033;-69
2022/03/11 09:29:38;;;;;;;24.88;11.98;;;;;;;;;;5045703;28;20527;-69
2022/03/11 09:32:04;;;;;;;20.52;11.70;;;;;;;;;;5043946;28;20037;-69
2022/03/11 09:34:30;;;;;;;24.60;12.73;;;;;;;;;;5043872;28;20041;-69
2022/03/11 09:36:57;;;;;;;24.25;12.70;;;;;;;;;;5043066;28;20458;-68
2022/03/11 09:39:24;;;;;;;24.75;12.30;;;;;;;;;;5043590;28;20068;-69
2022/03/11 09:41:50;;;;;;;20.33;11.20;;;;;;;;;;5045258;28;20052;-68
2022/03/11 09:44:17;;;;;;;24.60;12.00;;;;;;;;;;5043968;28;20086;-69
2022/03/11 09:46:43;;;;;;;20.83;11.07;;;;;;;;;;5042651;28;20515;-69
2022/03/11 09:49:12;;;;;;;22.92;10.57;;;;;;;;;;5045388;28;20044;-69
2022/03/11 09:51:40;;;;;;;21.23;11.93;;;;;;;;;;5043703;28;20064;-68
2022/03/11 09:54:06;;;;;;;22.63;11.75;;;;;;;;;;5044307;28;20069;-68
2022/03/11 09:56:35;;;;;;;20.05;10.70;;;;;;;;;;5045105;28;20045;-69
2022/03/11 09:59:01;;;;;;;22.45;10.90;;;;;;;;;;5043460;28;20041;-68
2022/03/11 10:01:27;;;;;;;19.02;10.63;;;;;;;;;;5044412;28;20696;-68
2022/03/11 10:03:53;;;;;;;;;;;;;;;;;;5044936;28;20056;-68
2022/03/11 10:06:39;;;;;;;19.33;9.73;;;;;;;;;;5044096;28;20035;-68
2022/03/11 10:09:05;;;;;;;19.25;10.35;;;;;;;;;;5045591;28;20033;-68
2022/03/11 10:11:32;;;;;;;28.85;11.25;;;;;;;;;;5044288;28;20037;-68
2022/03/11 10:14:08;;;;;;;19.40;10.77;;;;;;;;;;5044923;28;20798;-70
2022/03/11 10:16:35;;;;;;;18.85;10.07;;;;;;;;;;5043289;28;20055;-68
2022/03/11 10:19:01;;;;;;;17.77;10.05;;;;;;;;;;5044491;28;20684;-69
2022/03/11 10:21:27;;;;;;;;;;;;;;;;;;5045030;28;20397;-68
2022/03/11 10:23:53;;;;;;;20.90;10.60;;;;;;;;;;5043031;28;19917;-69
2022/03/11 10:26:39;;;;;;;18.05;10.23;;;;;;;;;;5045604;28;20044;-69
2022/03/11 10:29:06;;;;;;;21.25;10.88;;;;;;;;;;5044925;28;20048;-68
2022/03/11 10:31:33;;;;;;;19.45;9.57;;;;;;;;;;5043547;28;20044;-69
2022/03/11 10:34:17;;;;;;;19.58;10.70;;;;;;;;;;5043776;28;20045;-69
2022/03/11 10:36:47;;;;;;;20.15;9.63;;;;;;;;;;5042867;28;20041;-68
2022/03/11 10:39:18;;;;;;;18.30;9.73;;;;;;;;;;5042746;28;20070;-68
2022/03/11 10:41:45;;;;;;;20.17;10.32;;;;;;;;;;5044586;28;20450;-69
2022/03/11 10:44:12;;;;;;;20.42;10.75;;;;;;;;;;5043425;28;20041;-69
2022/03/11 10:46:38;;;;;;;18.55;9.10;;;;;;;;;;5044290;28;20506;-69
2022/03/11 10:49:04;;;;;;;19.98;10.15;;;;;;;;;;5044246;28;20124;-68
2022/03/11 10:51:33;;;;;;;;;;;;;;;;;;5043641;28;20128;-69
2022/03/11 10:54:00;;;;;;;24.92;10.77;;;;;;;;;;5044178;28;19920;-68
2022/03/11 10:56:29;;;;;;;20.95;10.95;;;;;;;;;;5025223;28;20124;-68
2022/03/11 10:58:55;;;;;;;19.92;10.43;;;;;;;;;;5044805;28;20120;-69
2022/03/11 11:01:34;;;;;;;21.25;11.00;;;;;;;;;;5043985;28;20094;-69
2022/03/11 11:04:01;;;;;;;15.75;9.52;;;;;;;;;;5044896;28;20049;-68
2022/03/11 11:06:28;;;;;;;20.40;10.65;;;;;;;;;;5043119;28;20614;-68
2022/03/11 11:08:55;;;;;;;19.65;10.57;;;;;;;;;;5044294;28;20036;-68
2022/03/11 11:11:22;;;;;;;21.58;9.27;;;;;;;;;;5044222;28;20029;-68
2022/03/11 11:13:47;;;;;;;19.00;10.40;;;;;;;;;;5043235;28;20738;-69
2022/03/11 11:16:13;;;;;;;;;;;;;;;;;;5044666;28;20124;-68
2022/03/11 11:18:44;;;;;;;22.77;10.32;;;;;;;;;;5044206;28;20382;-69
2022/03/11 11:21:11;;;;;;;19.58;9.73;;;;;;;;;;5044307;28;20492;-69
2022/03/11 11:23:38;;;;;;;18.85;10.02;;;;;;;;;;5045365;28;20041;-69
2022/03/11 11:26:05;;;;;;;20.80;10.40;;;;;;;;;;5044491;28;20041;-68
2022/03/11 11:28:31;;;;;;;17.05;9.25;;;;;;;;;;5044338;28;20049;-68
2022/03/11 11:30:58;;;;;;;22.08;9.57;;;;;;;;;;5043194;28;20147;-68
2022/03/11 11:33:24;;;;;;;20.52;9.98;;;;;;;;;;5044055;28;20148;-69
2022/03/11 11:35:57;;;;;;;17.33;9.20;;;;;;;;;;5044151;28;20064;-68
2022/03/11 11:38:37;;;;;;;16.67;9.25;;;;;;;;;;5043753;28;20801;-68
2022/03/11 11:41:18;;;;;;;18.38;10.00;;;;;;;;;;5044114;28;20041;-69
2022/03/11 11:44:00;;;;;;;18.80;10.10;;;;;;;;;;5043259;28;20114;-69
2022/03/11 11:46:26;;;;;;;16.83;9.45;;;;;;;;;;5045744;28;20052;-69
2022/03/11 11:48:52;;;;;;;21.98;9.95;;;;;;;;;;5045116;28;20040;-69
2022/03/11 11:51:18;;;;;;;20.52;8.85;;;;;;;;;;5035751;28;20033;-68
2022/03/11 11:53:44;;;;;;;;;;;;;;;;;;5043371;28;20072;-68
2022/03/11 11:56:36;;;;;;;41.22;10.43;;;;;;;;;;5043949;28;19917;-69
2022/03/11 11:59:16;;;;;;;21.83;9.35;;;;;;;;;;5027996;28;20052;-70
2022/03/11 12:01:55;;;;;;;20.58;8.95;;;;;;;;;;5043594;28;20045;-69
2022/03/11 12:04:31;;;;;;;18.27;9.95;;;;;;;;;;5043040;28;20051;-69
2022/03/11 12:06:58;;;;;;;21.70;9.07;;;;;;;;;;5042865;28;20033;-68
2022/03/11 12:09:39;;;;;;;16.23;8.02;;;;;;;;;;5043445;28;20049;-68
2022/03/11 12:12:09;;;;;;;14.85;8.77;;;;;;;;;;5043262;28;20037;-70
2022/03/11 12:14:54;;;;;;;18.45;8.75;;;;;;;;;;5044306;28;20098;-68
2022/03/11 12:17:38;;;;;;;23.55;8.60;;;;;;;;;;5047300;28;20052;-66
2022/03/11 12:20:23;;;;;;;17.83;8.80;;;;;;;;;;5045255;28;20075;-67
2022/03/11 12:22:53;;;;;;;17.13;9.75;;;;;;;;;;5046761;28;20095;-68
2022/03/11 12:25:23;;;;;;;20.73;8.60;;;;;;;;;;5046683;28;20048;-69
2022/03/11 12:28:01;;;;;;;16.50;9.20;;;;;;;;;;5046903;28;20937;-68
2022/03/11 12:30:28;;;;;;;18.65;9.00;;;;;;;;;;5046073;28;20040;-67
2022/03/11 12:32:54;;;;;;;15.38;8.88;;;;;;;;;;5046700;28;20681;-67
2022/03/11 12:35:20;;;;;;;;;;;;;;;;;;5044980;28;20053;-68
2022/03/11 12:37:46;;;;;;;16.42;8.25;;;;;;;;;;5045247;28;20091;-67
2022/03/11 12:40:11;;;;;;;;;;;;;;;;;;5045270;28;20036;-67
2022/03/11 12:42:38;;;;;;;16.40;8.48;;;;;;;;;;5045605;28;19984;-67
2022/03/11 12:45:06;;;;;;;18.23;10.30;;;;;;;;;;5044564;28;20119;-69
2022/03/11 12:47:38;;;;;;;16.20;8.90;;;;;;;;;;5045390;28;20044;-68
2022/03/11 12:50:05;;;;;;;13.07;7.75;;;;;;;;;;5046803;28;20531;-67
2022/03/11 12:52:41;;;;;;;17.25;7.68;;;;;;;;;;5039340;28;20489;-67
2022/03/11 12:55:30;;;;;;;14.63;7.78;;;;;;;;;;5045591;28;20618;-68
2022/03/11 12:57:57;;;;;;;16.45;8.52;;;;;;;;;;5038687;28;20135;-68
2022/03/11 13:00:24;;;;;;;16.00;8.43;;;;;;;;;;5044961;28;20786;-68
2022/03/11 13:02:50;;;;;;;13.43;7.88;;;;;;;;;;5046818;28;20037;-69
2022/03/11 13:05:27;;;;;;;13.10;7.70;;;;;;;;;;5043773;28;20089;-67
2022/03/11 13:07:53;;;;;;;;;;;;;;;;;;5043468;28;20135;-67
2022/03/11 13:10:24;;;;;;;15.82;8.40;;;;;;;;;;5045927;28;20019;-68
2022/03/11 13:12:51;;;;;;;15.63;7.82;;;;;;;;;;5047538;28;20064;-68
2022/03/11 13:15:26;;;;;;;17.63;7.57;;;;;;;;;;5046865;28;20515;-68
2022/03/11 13:17:53;;;;;;;15.93;7.45;;;;;;;;;;5047027;28;20129;-67
2022/03/11 13:20:33;;;;;;;13.85;6.75;;;;;;;;;;5045733;28;20052;-67
2022/03/11 13:23:28;;;;;;;13.88;7.68;;;;;;;;;;5046531;28;20045;-67
2022/03/11 13:25:59;;;;;;;11.38;6.20;;;;;;;;;;5036109;28;20833;-68
2022/03/11 13:28:31;;;;;;;15.88;7.28;;;;;;;;;;5046246;28;20462;-69
2022/03/11 13:30:58;;;;;;;13.85;6.80;;;;;;;;;;5045081;28;20083;-67
2022/03/11 13:33:27;;;;;;;13.45;7.20;;;;;;;;;;5045315;28;20037;-67
2022/03/11 13:36:03;;;;;;;12.55;6.93;;;;;;;;;;5045048;28;20037;-67
2022/03/11 13:38:37;;;;;;;25.83;7.32;;;;;;;;;;5045559;28;20033;-67
2022/03/11 13:41:03;;;;;;;13.70;7.30;;;;;;;;;;5047101;28;20037;-67
2022/03/11 13:43:29;;;;;;;12.05;6.82;;;;;;;;;;5044177;28;20033;-67
2022/03/11 13:45:55;;;;;;;11.98;7.13;;;;;;;;;;5043992;28;20045;-68
2022/03/11 13:48:36;;;;;;;14.13;7.22;;;;;;;;;;5045518;28;20463;-68
2022/03/11 13:51:11;;;;;;;18.13;7.50;;;;;;;;;;5044014;28;20060;-67
2022/03/11 13:53:38;;;;;;;12.18;7.05;;;;;;;;;;5044004;28;20036;-68
2022/03/11 13:56:14;;;;;;;14.20;6.75;;;;;;;;;;5044971;28;20049;-68
2022/03/11 13:58:40;;;;;;;16.23;7.35;;;;;;;;;;5044706;28;20045;-68
2022/03/11 14:01:06;;;;;;;;;;;;;;;;;;5045096;28;20034;-67
2022/03/11 14:03:41;;;;;;;16.25;7.68;;;;;;;;;;5044277;28;19924;-68
2022/03/11 14:06:07;;;;;;;17.52;8.10;;;;;;;;;;5043945;28;20041;-67
2022/03/11 14:08:33;;;;;;;;;;;;;;;;;;5044594;28;20398;-67
2022/03/11 14:11:02;;;;;;;13.70;6.90;;;;;;;;;;5040462;28;19975;-68
2022/03/11 14:13:31;;;;;;;13.32;6.70;;;;;;;;;;5024237;28;20133;-67
2022/03/11 14:16:05;;;;;;;10.98;6.50;;;;;;;;;;5035751;28;20029;-68